Time;durP1;ratioP1;P1;durP2;ratioP2;P2;SDS_P1;SDS_P2;PMS_P1;PMS_P2;Temp;Humidity;BMP_temperature;BMP_pressure;BME280_temperature;BME280_humidity;BME280_pressure;Samples;Min_cycle;Max_cycle;Signal;HPM_P1;HPM_P2
2022/04/25 00:01:04;;;;;;;;;;;7.80;99.90;;;;;;4963400;29;19970;-85
2022/04/25 00:03:51;;;;;;;;;;;7.80;99.90;;;;;;4967029;29;19926;-86
2022/04/25 00:06:38;;;;;;;;;;;7.70;99.90;;;;;;4940515;28;20577;-86
2022/04/25 00:09:25;;;;;;;;;;;7.70;99.90;;;;;;4957141;29;19967;-86
2022/04/25 00:12:13;;;;;;;;;;;7.70;99.90;;;;;;4964891;28;20275;-85
2022/04/25 00:15:00;;;;;;;;;;;7.80;99.90;;;;;;4960833;28;19998;-87
2022/04/25 00:17:49;;;;;;;;;;;7.80;99.90;;;;;;4960495;28;19933;-86
2022/04/25 00:20:36;;;;;;;;;;;7.80;99.90;;;;;;4959560;28;19981;-86
2022/04/25 00:23:23;;;;;;;;;;;7.70;99.90;;;;;;4961596;28;19933;-86
2022/04/25 00:26:10;;;;;;;;;;;7.70;99.90;;;;;;4958309;28;19926;-86
2022/04/25 00:28:57;;;;;;;;;;;7.70;99.90;;;;;;4960493;28;19985;-87
2022/04/25 00:31:45;;;;;;;;;;;7.80;99.90;;;;;;4964241;28;19926;-86
2022/04/25 00:34:32;;;;;;;;;;;7.80;99.90;;;;;;4947784;28;19989;-85
2022/04/25 00:37:19;;;;;;;;;;;7.70;99.90;;;;;;4952492;28;19949;-84
2022/04/25 00:40:08;;;;;;;;;;;7.80;99.90;;;;;;4951518;28;19923;-87
2022/04/25 00:42:57;;;;;;;;;;;7.80;99.90;;;;;;4953959;28;20256;-87
2022/04/25 00:45:44;;;;;;;;;;;7.70;99.90;;;;;;4952711;29;20041;-86
2022/04/25 00:48:31;;;;;;;;;;;7.70;99.90;;;;;;4969767;28;20400;-88
2022/04/25 00:51:18;;;;;;;;;;;7.80;99.90;;;;;;4955209;28;20344;-87
2022/04/25 00:54:06;;;;;;;;;;;7.80;99.90;;;;;;4956453;28;19982;-86
2022/04/25 00:56:54;;;;;;;;;;;7.80;99.90;;;;;;4957158;28;19926;-87
2022/04/25 00:59:45;;;;;;;;;;;7.80;99.90;;;;;;4954849;28;20289;-86
2022/04/25 01:02:32;;;;;;;;;;;7.70;99.90;;;;;;4955866;28;19924;-87
2022/04/25 01:05:20;;;;;;;;;;;7.80;99.90;;;;;;4954622;29;19933;-84
2022/04/25 01:08:07;;;;;;;;;;;7.80;99.90;;;;;;4957493;28;19929;-85
2022/04/25 01:10:55;;;;;;;;;;;7.80;99.90;;;;;;4953712;28;20359;-86
2022/04/25 01:13:43;;;;;;;;;;;7.80;99.90;;;;;;4960395;28;19985;-86
2022/04/25 01:16:30;;;;;;;;;;;7.80;99.90;;;;;;4956358;28;19993;-85
2022/04/25 01:19:20;;;;;;;;;;;7.80;99.90;;;;;;4959548;28;19930;-86
2022/04/25 01:22:13;;;;;;;;;;;7.70;99.90;;;;;;4954904;29;19934;-86
2022/04/25 01:28:08;;;;;;;;;;;7.70;99.90;;;;;;4962045;28;19926;-85
2022/04/25 01:30:55;;;;;;;;;;;7.70;99.90;;;;;;4955455;28;19933;-85
2022/04/25 01:33:42;;;;;;;;;;;7.70;99.90;;;;;;4956514;28;19948;-85
2022/04/25 01:36:30;;;;;;;;;;;7.70;99.90;;;;;;4952450;28;20356;-86
2022/04/25 01:39:18;;;;;;;;;;;7.60;99.90;;;;;;4950683;29;19923;-85
2022/04/25 01:42:05;;;;;;;;;;;7.60;99.90;;;;;;4957640;29;19926;-84
2022/04/25 01:44:52;;;;;;;;;;;7.70;99.90;;;;;;4952405;28;19930;-85
2022/04/25 01:47:40;;;;;;;;;;;7.60;99.90;;;;;;4947644;28;20356;-83
2022/04/25 01:50:27;;;;;;;;;;;7.60;99.90;;;;;;4957526;28;19981;-85
2022/04/25 01:53:14;;;;;;;;;;;7.60;99.90;;;;;;4959501;28;19936;-85
2022/04/25 01:56:01;;;;;;;;;;;7.60;99.90;;;;;;4960838;28;19922;-85
2022/04/25 01:58:51;;;;;;;;;;;7.60;99.90;;;;;;4954989;28;19922;-85
2022/04/25 02:01:38;;;;;;;;;;;7.60;99.90;;;;;;4963208;28;19978;-86
2022/04/25 02:04:25;;;;;;;;;;;7.50;99.90;;;;;;4955719;28;19941;-84
2022/04/25 02:07:12;;;;;;;;;;;7.50;99.90;;;;;;4946780;29;19929;-86
2022/04/25 02:10:01;;;;;;;;;;;7.50;99.90;;;;;;4957302;28;19926;-86
2022/04/25 02:12:48;;;;;;;;;;;7.50;99.90;;;;;;4961225;28;20257;-86
2022/04/25 02:15:35;;;;;;;;;;;7.40;99.90;;;;;;4960561;28;19950;-85
2022/04/25 02:18:22;;;;;;;;;;;7.40;99.90;;;;;;4962573;28;19997;-86
2022/04/25 02:21:10;;;;;;;;;;;7.40;99.90;;;;;;4954941;28;19981;-84
2022/04/25 02:23:57;;;;;;;;;;;7.30;99.90;;;;;;4959748;28;19957;-85
2022/04/25 02:26:46;;;;;;;;;;;7.20;99.90;;;;;;4958629;28;19926;-84
2022/04/25 02:29:35;;;;;;;;;;;7.00;99.90;;;;;;4942234;29;20367;-85
2022/04/25 02:32:22;;;;;;;;;;;6.90;99.90;;;;;;4958173;28;19922;-84
2022/04/25 02:35:12;;;;;;;;;;;6.80;99.90;;;;;;4959167;28;20002;-84
2022/04/25 02:37:59;;;;;;;;;;;6.70;99.90;;;;;;4956606;28;19998;-85
2022/04/25 02:40:46;;;;;;;;;;;6.60;99.90;;;;;;4973242;28;20323;-83
2022/04/25 02:43:34;;;;;;;;;;;6.60;99.90;;;;;;4963179;28;19926;-87
2022/04/25 02:46:21;;;;;;;;;;;6.60;99.90;;;;;;4941685;29;19922;-85
2022/04/25 02:49:08;;;;;;;;;;;6.70;99.90;;;;;;4958141;28;19934;-85
2022/04/25 02:51:55;;;;;;;;;;;6.80;99.90;;;;;;4955059;28;20360;-85
2022/04/25 02:54:42;;;;;;;;;;;6.80;99.90;;;;;;4943826;28;19930;-84
2022/04/25 02:57:29;;;;;;;;;;;6.90;99.90;;;;;;4953602;28;19931;-86
2022/04/25 03:00:16;;;;;;;;;;;6.90;99.90;;;;;;4945395;28;20020;-85
2022/04/25 03:03:03;;;;;;;;;;;6.90;99.90;;;;;;4957985;29;19929;-85
2022/04/25 03:05:51;;;;;;;;;;;6.90;99.90;;;;;;4961280;28;19926;-85
2022/04/25 03:08:39;;;;;;;;;;;6.80;99.90;;;;;;4957369;28;20008;-85
2022/04/25 03:11:26;;;;;;;;;;;6.70;99.90;;;;;;4970418;28;19925;-84
2022/04/25 03:14:13;;;;;;;;;;;6.80;99.90;;;;;;4967498;28;19922;-86
2022/04/25 03:17:01;;;;;;;;;;;6.80;99.90;;;;;;4957732;28;20347;-84
2022/04/25 03:19:48;;;;;;;;;;;6.80;99.90;;;;;;4952506;28;19965;-85
2022/04/25 03:22:35;;;;;;;;;;;6.70;99.90;;;;;;4947426;28;19933;-85
2022/04/25 03:25:24;;;;;;;;;;;6.60;99.90;;;;;;4958888;28;19959;-85
2022/04/25 03:28:12;;;;;;;;;;;6.50;99.90;;;;;;4953895;28;19934;-84
2022/04/25 03:30:59;;;;;;;;;;;6.40;99.90;;;;;;4952651;28;19930;-85
2022/04/25 03:33:46;;;;;;;;;;;6.30;99.90;;;;;;4947341;28;19926;-85
2022/04/25 03:36:33;;;;;;;;;;;6.20;99.90;;;;;;4950480;29;19922;-86
2022/04/25 03:39:20;;;;;;;;;;;6.20;99.90;;;;;;4946441;29;19941;-84
2022/04/25 03:42:10;;;;;;;;;;;6.30;99.90;;;;;;4952315;29;20343;-86
2022/04/25 03:45:02;;;;;;;;;;;6.30;99.90;;;;;;4955661;28;19923;-87
2022/04/25 03:47:49;;;;;;;;;;;6.30;99.90;;;;;;4960645;28;19949;-85
2022/04/25 03:50:36;;;;;;;;;;;6.30;99.90;;;;;;4965034;28;20333;-84
2022/04/25 03:53:23;;;;;;;;;;;6.20;99.90;;;;;;4956746;28;19923;-85
2022/04/25 03:59:16;;;;;;;;;;;6.10;99.90;;;;;;4955649;28;19926;-86
2022/04/25 04:02:05;;;;;;;;;;;6.00;99.90;;;;;;4953853;28;20356;-85
2022/04/25 04:04:53;;;;;;;;;;;6.00;99.90;;;;;;4970934;28;20005;-86
2022/04/25 04:07:40;;;;;;;;;;;6.00;99.90;;;;;;4956406;28;20386;-86
2022/04/25 04:10:29;;;;;;;;;;;6.10;99.90;;;;;;4947936;28;20001;-87
2022/04/25 04:13:16;;;;;;;;;;;6.20;99.90;;;;;;4963993;28;19932;-84
2022/04/25 04:16:04;;;;;;;;;;;6.10;99.90;;;;;;4955310;28;19923;-86
2022/04/25 04:18:52;;;;;;;;;;;6.10;99.90;;;;;;4957736;28;20009;-85
2022/04/25 04:21:39;;;;;;;;;;;6.20;99.90;;;;;;4957305;28;19950;-85
2022/04/25 04:24:26;;;;;;;;;;;6.20;99.90;;;;;;4957125;28;20242;-85
2022/04/25 04:27:16;;;;;;;;;;;6.30;99.90;;;;;;4960921;28;20012;-86
2022/04/25 04:30:06;;;;;;;;;;;6.30;99.90;;;;;;4961117;28;19922;-85
2022/04/25 04:32:56;;;;;;;;;;;6.40;99.90;;;;;;4959141;28;19933;-87
2022/04/25 05:17:40;;;;;;;;;;;7.00;99.90;;;;;;4866991;29;19917;-87
2022/04/25 05:20:28;;;;;;;;;;;7.20;99.90;;;;;;4885646;29;19987;-85
2022/04/25 05:23:19;;;;;;;;;;;7.20;99.90;;;;;;4944017;29;19922;-87
2022/04/25 05:26:08;;;;;;;;;;;7.30;99.90;;;;;;4952659;29;19930;-85
2022/04/25 05:28:57;;;;;;;;;;;7.20;99.90;;;;;;4952498;28;19926;-86
2022/04/25 05:31:49;;;;;;;;;;;7.20;99.90;;;;;;4956354;28;19922;-86
2022/04/25 05:34:43;;;;;;;;;;;7.20;99.90;;;;;;4948173;28;19954;-86
2022/04/25 05:37:31;;;;;;;;;;;7.20;99.90;;;;;;4956028;28;19926;-83
2022/04/25 05:40:18;;;;;;;;;;;7.20;99.90;;;;;;4941702;28;19944;-85
2022/04/25 05:43:06;;;;;;;;;;;7.20;99.90;;;;;;4962190;28;19929;-85
2022/04/25 05:45:53;;;;;;;;;;;7.30;99.90;;;;;;4953956;29;20328;-86
2022/04/25 05:51:58;;;;;;;;;;;7.50;99.90;;;;;;4957263;28;19930;-84
2022/04/25 05:54:46;;;;;;;;;;;7.70;99.90;;;;;;4951292;28;19945;-82
2022/04/25 05:57:33;;;;;;;;;;;7.80;99.90;;;;;;4962839;28;19997;-84
2022/04/25 06:00:24;;;;;;;;;;;7.90;99.90;;;;;;4953353;28;19930;-83
2022/04/25 06:03:11;;;;;;;;;;;8.00;99.90;;;;;;4955693;28;19930;-83
2022/04/25 06:05:58;;;;;;;;;;;8.20;99.90;;;;;;4954717;28;19922;-83
2022/04/25 06:08:45;;;;;;;;;;;8.20;99.90;;;;;;4957757;28;19948;-84
2022/04/25 06:11:32;;;;;;;;;;;8.30;99.90;;;;;;4954834;28;20257;-84
2022/04/25 06:14:21;;;;;;;;;;;8.30;99.90;;;;;;4956077;28;20352;-85
2022/04/25 06:17:09;;;;;;;;;;;8.60;99.90;;;;;;4967865;28;20437;-83
2022/04/25 06:19:56;;;;;;;;;;;8.60;99.90;;;;;;4948141;28;19930;-81
2022/04/25 06:22:51;;;;;;;;;;;8.60;99.90;;;;;;4951481;28;19922;-83
2022/04/25 06:25:38;;;;;;;;;;;8.60;99.90;;;;;;4954782;28;19934;-83
2022/04/25 06:28:29;;;;;;;;;;;8.60;99.90;;;;;;4954185;28;19930;-84
2022/04/25 06:31:18;;;;;;;;;;;8.60;99.90;;;;;;4953832;29;19952;-82
2022/04/25 06:34:06;;;;;;;;;;;8.80;99.90;;;;;;4959736;28;19934;-84
2022/04/25 06:36:56;;;;;;;;;;;8.90;99.90;;;;;;4956234;28;20028;-84
2022/04/25 06:39:44;;;;;;;;;;;9.00;99.90;;;;;;4951697;28;19969;-83
2022/04/25 06:42:31;;;;;;;;;;;9.00;99.90;;;;;;4964696;28;19953;-83
2022/04/25 06:45:19;;;;;;;;;;;9.10;99.90;;;;;;4951381;29;20021;-82
2022/04/25 06:48:07;;;;;;;;;;;9.10;99.90;;;;;;4940363;28;20765;-82
2022/04/25 06:50:56;;;;;;;;;;;9.20;99.90;;;;;;4958640;28;19933;-82
2022/04/25 06:53:46;;;;;;;;;;;9.10;99.90;;;;;;4944043;28;19931;-83
2022/04/25 06:56:33;;;;;;;;;;;9.00;99.90;;;;;;4965595;28;19922;-84
2022/04/25 06:59:25;;;;;;;;;;;9.20;99.90;;;;;;4952712;28;19930;-84
2022/04/25 07:02:13;;;;;;;;;;;9.40;99.90;;;;;;4955716;28;19922;-85
2022/04/25 07:05:01;;;;;;;;;;;9.50;99.90;;;;;;4947785;28;19945;-86
2022/04/25 07:07:48;;;;;;;;;;;9.70;99.90;;;;;;4957041;28;20065;-85
2022/04/25 07:10:35;;;;;;;;;;;9.80;99.90;;;;;;4947789;28;19933;-86
2022/04/25 07:13:23;;;;;;;;;;;10.00;99.90;;;;;;4955459;28;20225;-85
2022/04/25 07:16:17;;;;;;;;;;;10.20;99.90;;;;;;4954761;28;19958;-86
2022/04/25 07:19:06;;;;;;;;;;;10.50;99.90;;;;;;4957970;28;19927;-84
2022/04/25 07:31:20;;;;;;;;;;;10.80;99.90;;;;;;4941607;29;19930;-83
2022/04/25 07:34:07;;;;;;;;;;;10.80;99.90;;;;;;4955588;28;19933;-85
2022/04/25 07:36:55;;;;;;;;;;;11.00;99.90;;;;;;4956843;28;19994;-84
2022/04/25 07:39:45;;;;;;;;;;;11.20;99.90;;;;;;4939840;28;19933;-85
2022/04/25 07:42:38;;;;;;;;;;;11.10;99.90;;;;;;4940120;28;20384;-86
2022/04/25 07:45:32;;;;;;;;;;;11.10;99.90;;;;;;4952907;28;19962;-85
2022/04/25 07:48:20;;;;;;;;;;;11.30;99.90;;;;;;4957318;28;19930;-86
2022/04/25 07:51:08;;;;;;;;;;;11.20;99.90;;;;;;4942836;28;19929;-85
2022/04/25 07:53:56;;;;;;;;;;;11.10;99.90;;;;;;4957281;28;20348;-85
2022/04/25 07:56:43;;;;;;;;;;;11.00;99.90;;;;;;4958117;28;20404;-86
2022/04/25 07:59:32;;;;;;;;;;;11.00;99.90;;;;;;4967150;28;19922;-87
2022/04/25 08:02:21;;;;;;;;;;;11.00;99.90;;;;;;4958115;28;20037;-85
2022/04/25 08:05:11;;;;;;;;;;;11.00;99.90;;;;;;4960993;28;19958;-86
2022/04/25 08:08:03;;;;;;;;;;;11.00;99.90;;;;;;4951247;28;20317;-83
2022/04/25 08:10:52;;;;;;;;;;;11.00;99.90;;;;;;4957753;28;20033;-85
2022/04/25 08:20:02;;;;;;;;;;;11.60;99.90;;;;;;4956449;28;19922;-84
2022/04/25 08:22:52;;;;;;;;;;;12.60;99.90;;;;;;4945834;28;19934;-82
2022/04/25 08:25:42;;;;;;;;;;;13.40;99.90;;;;;;4962147;28;19922;-84
2022/04/25 08:28:35;;;;;;;;;;;13.70;99.90;;;;;;4956670;28;19922;-84
2022/04/25 08:31:46;;;;;;;;;;;14.20;99.90;;;;;;4952811;28;19923;-84
2022/04/25 08:34:37;;;;;;;;;;;14.80;99.90;;;;;;4953469;28;19930;-84
2022/04/25 08:37:26;;;;;;;;;;;15.20;99.90;;;;;;4947798;28;20006;-83
2022/04/25 08:40:19;;;;;;;;;;;15.20;99.90;;;;;;4958193;28;19941;-84
2022/04/25 08:43:14;;;;;;;;;;;15.90;99.90;;;;;;4953972;28;19926;-86
2022/04/25 08:46:04;;;;;;;;;;;16.00;99.90;;;;;;4958144;28;19941;-87
2022/04/25 08:48:54;;;;;;;;;;;15.90;99.90;;;;;;4950113;28;19926;-84
2022/04/25 08:51:43;;;;;;;;;;;15.60;99.90;;;;;;4951968;28;20279;-85
2022/04/25 08:54:32;;;;;;;;;;;14.30;99.90;;;;;;4967712;28;19922;-84
2022/04/25 08:57:27;;;;;;;;;;;14.10;99.90;;;;;;4962263;28;19926;-84
2022/04/25 09:00:16;;;;;;;;;;;13.70;99.90;;;;;;4958959;28;20336;-86
2022/04/25 09:03:04;;;;;;;;;;;13.40;99.90;;;;;;4953862;28;19953;-87
2022/04/25 09:05:52;;;;;;;;;;;13.30;99.90;;;;;;4955021;28;19923;-87
2022/04/25 09:08:42;;;;;;;;;;;13.30;99.90;;;;;;4932641;29;19963;-87
2022/04/25 09:14:40;;;;;;;;;;;13.20;99.90;;;;;;4956523;28;19923;-85
2022/04/25 09:17:28;;;;;;;;;;;13.00;99.90;;;;;;4951655;28;20017;-84
2022/04/25 09:20:15;;;;;;;;;;;13.20;99.90;;;;;;4957320;28;19942;-84
2022/04/25 09:23:18;;;;;;;;;;;13.50;99.90;;;;;;4954431;28;20013;-82
2022/04/25 09:26:12;;;;;;;;;;;14.70;99.90;;;;;;4955654;28;19933;-84
2022/04/25 09:29:01;;;;;;;;;;;16.10;99.90;;;;;;4960053;28;19994;-84
2022/04/25 09:31:50;;;;;;;;;;;17.20;99.90;;;;;;4958875;28;19925;-83
2022/04/25 09:37:47;;;;;;;;;;;19.00;99.90;;;;;;4950459;28;19930;-85
2022/04/25 09:40:35;;;;;;;;;;;19.50;98.20;;;;;;4950059;28;20213;-86
2022/04/25 09:43:29;;;;;;;;;;;20.00;91.60;;;;;;4960386;28;20375;-85
2022/04/25 09:46:19;;;;;;;;;;;20.00;76.50;;;;;;4949353;28;20036;-83
2022/04/25 09:49:06;;;;;;;;;;;20.60;92.10;;;;;;4955032;28;19929;-86
2022/04/25 09:52:03;;;;;;;;;;;20.80;84.40;;;;;;4960168;28;20367;-82
2022/04/25 09:54:51;;;;;;;;;;;20.90;79.90;;;;;;4959624;28;20218;-81
2022/04/25 09:57:39;;;;;;;;;;;20.30;77.30;;;;;;4955867;28;20395;-86
2022/04/25 10:00:34;;;;;;;;;;;19.90;79.60;;;;;;4961730;28;20061;-84
2022/04/25 10:03:32;;;;;;;;;;;19.40;77.30;;;;;;4947210;28;20353;-84
2022/04/25 10:06:23;;;;;;;;;;;18.80;78.50;;;;;;4958866;28;20296;-82
2022/04/25 10:09:10;;;;;;;;;;;18.30;85.20;;;;;;4953696;28;20364;-82
2022/04/25 10:11:59;;;;;;;;;;;17.50;86.90;;;;;;4945065;28;19923;-82
2022/04/25 10:14:47;;;;;;;;;;;16.70;90.00;;;;;;4954039;28;19953;-82
2022/04/25 10:17:40;;;;;;;;;;;16.10;91.50;;;;;;4949791;28;19930;-81
2022/04/25 10:20:28;;;;;;;;;;;15.60;93.50;;;;;;4953143;28;19933;-82
2022/04/25 10:23:17;;;;;;;;;;;15.30;95.90;;;;;;4955056;28;19934;-82
2022/04/25 10:26:06;;;;;;;;;;;15.10;98.80;;;;;;4952582;28;19926;-83
2022/04/25 10:28:55;;;;;;;;;;;14.90;99.40;;;;;;4955451;28;20376;-83
2022/04/25 10:31:44;;;;;;;;;;;14.80;99.90;;;;;;4961542;28;20049;-84
2022/04/25 10:34:46;;;;;;;;;;;14.90;99.90;;;;;;4933100;28;20382;-83
2022/04/25 10:37:35;;;;;;;;;;;14.90;99.90;;;;;;4968136;28;20260;-83
2022/04/25 10:44:10;;;;;;;;;;;14.90;99.90;;;;;;4952972;28;19927;-84
2022/04/25 10:47:14;;;;;;;;;;;14.40;99.90;;;;;;4951167;28;19933;-83
2022/04/25 10:50:04;;;;;;;;;;;14.40;99.90;;;;;;4959708;28;20289;-83
2022/04/25 10:52:56;;;;;;;;;;;14.50;99.90;;;;;;4953820;28;19989;-83
2022/04/25 10:55:45;;;;;;;;;;;14.40;99.90;;;;;;4952451;29;20461;-82
2022/04/25 10:58:35;;;;;;;;;;;14.20;99.90;;;;;;4964291;28;19969;-84
2022/04/25 11:01:43;;;;;;;;;;;14.10;99.90;;;;;;4960562;28;20353;-83
2022/04/25 11:04:31;;;;;;;;;;;13.90;99.90;;;;;;4942326;28;19986;-84
2022/04/25 11:07:19;;;;;;;;;;;13.40;99.90;;;;;;4965685;28;20258;-84
2022/04/25 11:10:32;;;;;;;;;;;12.80;99.90;;;;;;4954734;28;19926;-84
2022/04/25 11:13:20;;;;;;;;;;;12.30;99.90;;;;;;4955579;28;19969;-84
2022/04/25 11:16:22;;;;;;;;;;;11.70;99.90;;;;;;4957926;28;19925;-86
2022/04/25 11:19:32;;;;;;;;;;;11.40;99.90;;;;;;4953351;28;19953;-86
2022/04/25 11:22:38;;;;;;;;;;;11.20;99.90;;;;;;4963870;28;20222;-85
2022/04/25 11:25:29;;;;;;;;;;;10.90;99.90;;;;;;4958378;28;19934;-84
2022/04/25 11:28:17;;;;;;;;;;;10.80;99.90;;;;;;4959664;28;19922;-85
2022/04/25 11:31:15;;;;;;;;;;;10.70;99.90;;;;;;4946427;28;19969;-87
2022/04/25 11:34:07;;;;;;;;;;;10.70;99.90;;;;;;4955515;28;19989;-86
2022/04/25 11:36:54;;;;;;;;;;;10.60;99.90;;;;;;4968271;28;19957;-87
2022/04/25 11:39:57;;;;;;;;;;;10.50;99.90;;;;;;4961202;28;19922;-87
2022/04/25 11:42:45;;;;;;;;;;;10.30;99.90;;;;;;4955735;28;19938;-87
2022/04/25 11:45:36;;;;;;;;;;;10.30;99.90;;;;;;4958087;28;19973;-86
2022/04/25 11:48:29;;;;;;;;;;;10.30;99.90;;;;;;4964992;28;19922;-86
2022/04/25 11:51:29;;;;;;;;;;;10.40;99.90;;;;;;4962558;28;19930;-85
2022/04/25 11:54:20;;;;;;;;;;;10.30;99.90;;;;;;4965457;28;19952;-86
2022/04/25 11:57:07;;;;;;;;;;;10.40;99.90;;;;;;4959134;28;20021;-87
2022/04/25 12:00:14;;;;;;;;;;;10.40;99.90;;;;;;4953921;28;21672;-85
2022/04/25 12:03:03;;;;;;;;;;;10.20;99.90;;;;;;4956090;28;20306;-86
2022/04/25 12:06:06;;;;;;;;;;;10.10;99.90;;;;;;4969709;28;19941;-85
2022/04/25 12:18:27;;;;;;;;;;;10.40;99.90;;;;;;4963026;28;19926;-86
2022/04/25 12:21:25;;;;;;;;;;;10.50;99.90;;;;;;4960470;28;19952;-85
2022/04/25 12:24:18;;;;;;;;;;;10.60;99.90;;;;;;4952965;28;19929;-84
2022/04/25 12:27:10;;;;;;;;;;;10.80;99.90;;;;;;4954319;28;19922;-86
2022/04/25 12:30:08;;;;;;;;;;;10.90;99.90;;;;;;4950217;28;20348;-86
2022/04/25 12:33:10;;;;;;;;;;;10.80;99.90;;;;;;4960972;28;19938;-85
2022/04/25 12:36:07;;;;;;;;;;;10.80;99.90;;;;;;4965226;28;20049;-85
2022/04/25 12:38:57;;;;;;;;;;;11.00;99.90;;;;;;4948643;28;20368;-84
2022/04/25 12:42:10;;;;;;;;;;;11.10;99.90;;;;;;4952956;28;19957;-84
2022/04/25 12:44:58;;;;;;;;;;;11.20;99.90;;;;;;4955756;28;20064;-86
2022/04/25 12:47:53;;;;;;;;;;;11.70;99.90;;;;;;4955203;28;19929;-86
2022/04/25 12:50:44;;;;;;;;;;;12.30;99.90;;;;;;4961029;28;19934;-86
2022/04/25 12:53:40;;;;;;;;;;;13.30;99.90;;;;;;4964533;28;19930;-85
2022/04/25 12:56:38;;;;;;;;;;;14.90;99.90;;;;;;4963146;28;20009;-86
2022/04/25 12:59:29;;;;;;;;;;;16.00;99.90;;;;;;4959945;28;19926;-86
2022/04/25 13:02:17;;;;;;;;;;;17.20;99.90;;;;;;4959793;28;19985;-86
2022/04/25 13:05:10;;;;;;;;;;;18.50;99.90;;;;;;4960445;28;19926;-86
2022/04/25 13:08:05;;;;;;;;;;;18.70;94.80;;;;;;4965718;28;19945;-83
2022/04/25 13:10:52;;;;;;;;;;;18.90;93.80;;;;;;4958830;28;19957;-84
2022/04/25 13:13:42;;;;;;;;;;;18.70;92.20;;;;;;4955260;28;19931;-85
2022/04/25 13:16:30;;;;;;;;;;;18.30;93.00;;;;;;4949806;28;19922;-85
2022/04/25 13:19:25;;;;;;;;;;;18.90;95.40;;;;;;4940954;28;19933;-84
2022/04/25 13:22:14;;;;;;;;;;;19.90;92.70;;;;;;4965628;28;19945;-85
2022/04/25 13:25:03;;;;;;;;;;;18.90;85.10;;;;;;4954246;28;19981;-83
2022/04/25 13:27:54;;;;;;;;;;;17.00;93.30;;;;;;4957934;28;19948;-82
2022/04/25 13:30:42;;;;;;;;;;;16.40;98.40;;;;;;4937163;28;20217;-82
2022/04/25 13:33:30;;;;;;;;;;;16.90;99.50;;;;;;4953900;28;19930;-83
2022/04/25 13:36:18;;;;;;;;;;;18.60;91.20;;;;;;4964856;28;19933;-84
2022/04/25 13:39:06;;;;;;;;;;;18.60;85.80;;;;;;4955782;28;19930;-84
2022/04/25 13:41:53;;;;;;;;;;;17.70;91.30;;;;;;4954113;28;20012;-84
2022/04/25 13:44:41;;;;;;;;;;;18.50;87.70;;;;;;4944941;28;19930;-82
2022/04/25 13:47:30;;;;;;;;;;;18.70;85.80;;;;;;4959531;28;19930;-84
2022/04/25 13:50:18;;;;;;;;;;;18.50;84.60;;;;;;4956770;28;19933;-82
2022/04/25 13:53:08;;;;;;;;;;;18.00;84.50;;;;;;4952471;28;20245;-85
2022/04/25 13:55:56;;;;;;;;;;;18.50;88.20;;;;;;4952668;28;20399;-84
2022/04/25 13:58:43;;;;;;;;;;;18.40;83.90;;;;;;4948535;28;19922;-86
2022/04/25 14:01:31;;;;;;;;;;;18.70;84.90;;;;;;4957181;28;19926;-84
2022/04/25 14:04:18;;;;;;;;;;;19.40;79.50;;;;;;4955237;28;20530;-83
2022/04/25 14:07:08;;;;;;;;;;;17.90;85.30;;;;;;4950796;28;19922;-84
2022/04/25 14:09:56;;;;;;;;;;;17.60;88.40;;;;;;4964180;28;19956;-83
2022/04/25 14:12:46;;;;;;;;;;;17.60;90.10;;;;;;4949187;28;19945;-86
2022/04/25 14:15:40;;;;;;;;;;;17.90;87.60;;;;;;4953136;28;19922;-84
2022/04/25 14:18:30;;;;;;;;;;;18.70;89.50;;;;;;4956369;28;20144;-85
2022/04/25 14:21:18;;;;;;;;;;;19.80;79.20;;;;;;4954877;28;19933;-84
2022/04/25 14:24:06;;;;;;;;;;;20.60;73.10;;;;;;4954924;28;19981;-85
2022/04/25 14:26:53;;;;;;;;;;;18.20;76.90;;;;;;4954135;28;19974;-86
2022/04/25 14:29:41;;;;;;;;;;;16.40;88.30;;;;;;4961698;28;19941;-85
2022/04/25 14:32:32;;;;;;;;;;;16.20;91.30;;;;;;4938512;28;19921;-86
2022/04/25 14:35:24;;;;;;;;;;;16.30;92.10;;;;;;4955278;28;19926;-83
2022/04/25 14:38:12;;;;;;;;;;;17.10;88.60;;;;;;4948657;28;19994;-85
2022/04/25 14:41:07;;;;;;;;;;;17.20;90.20;;;;;;4943433;28;19926;-82
2022/04/25 14:44:00;;;;;;;;;;;18.50;82.00;;;;;;4954304;28;20000;-83
2022/04/25 14:46:49;;;;;;;;;;;18.00;77.90;;;;;;4939450;28;20001;-86
2022/04/25 14:55:53;;;;;;;;;;;19.90;71.00;;;;;;4951999;28;19922;-84
2022/04/25 14:58:40;;;;;;;;;;;20.20;69.10;;;;;;4960685;28;20210;-84
2022/04/25 15:01:29;;;;;;;;;;;20.30;65.30;;;;;;4955470;28;20000;-82
2022/04/25 15:04:19;;;;;;;;;;;20.30;67.90;;;;;;4964839;28;19922;-85
2022/04/25 15:07:08;;;;;;;;;;;18.30;68.40;;;;;;4977488;28;19922;-85
2022/04/25 15:09:57;;;;;;;;;;;16.70;78.60;;;;;;4965745;28;20213;-85
2022/04/25 15:12:45;;;;;;;;;;;16.30;83.70;;;;;;4954733;28;20052;-85
2022/04/25 15:15:37;;;;;;;;;;;15.60;86.80;;;;;;4957091;28;19922;-85
2022/04/25 15:18:25;;;;;;;;;;;16.00;88.90;;;;;;4958511;28;19970;-84
2022/04/25 15:21:14;;;;;;;;;;;17.00;81.10;;;;;;4963088;28;20001;-84
2022/04/25 15:24:07;;;;;;;;;;;17.60;80.40;;;;;;4968023;28;19927;-85
2022/04/25 15:26:54;;;;;;;;;;;17.60;78.20;;;;;;4962431;28;19923;-84
2022/04/25 15:29:44;;;;;;;;;;;16.30;83.80;;;;;;4949698;28;19922;-85
2022/04/25 15:32:36;;;;;;;;;;;15.10;90.00;;;;;;4952202;28;19988;-86
2022/04/25 15:35:26;;;;;;;;;;;14.60;93.60;;;;;;4960846;29;20004;-85
2022/04/25 15:38:14;;;;;;;;;;;14.10;96.40;;;;;;4974078;28;20005;-85
2022/04/25 15:41:01;;;;;;;;;;;13.80;97.60;;;;;;4963465;28;19937;-87
2022/04/25 15:43:49;;;;;;;;;;;13.40;99.90;;;;;;4937278;29;19926;-85
2022/04/25 15:46:36;;;;;;;;;;;13.40;99.90;;;;;;4960096;28;19941;-84
2022/04/25 15:49:24;;;;;;;;;;;13.40;99.90;;;;;;4957540;28;20352;-84
2022/04/25 15:52:11;;;;;;;;;;;13.30;99.90;;;;;;4965069;28;20328;-85
2022/04/25 15:58:05;;;;;;;;;;;13.00;99.90;;;;;;4961509;28;19948;-86
2022/04/25 16:00:53;;;;;;;;;;;13.00;99.90;;;;;;4962394;28;19922;-85
2022/04/25 16:03:43;;;;;;;;;;;12.90;99.90;;;;;;4952290;28;19932;-86
2022/04/25 16:06:35;;;;;;;;;;;12.80;99.90;;;;;;4951866;28;19944;-84
2022/04/25 16:09:23;;;;;;;;;;;12.60;99.90;;;;;;4964143;28;19922;-85
2022/04/25 16:12:10;;;;;;;;;;;12.50;99.90;;;;;;4954176;28;19922;-85
2022/04/25 16:14:58;;;;;;;;;;;12.40;99.90;;;;;;4958495;28;19971;-85
2022/04/25 16:17:47;;;;;;;;;;;12.30;99.90;;;;;;4958033;28;20355;-85
2022/04/25 16:20:36;;;;;;;;;;;12.20;99.90;;;;;;4955973;28;19922;-82
2022/04/25 16:23:27;;;;;;;;;;;12.20;99.90;;;;;;4956365;28;19929;-85
2022/04/25 16:26:14;;;;;;;;;;;12.20;99.90;;;;;;4961907;28;19941;-86
2022/04/25 16:29:02;;;;;;;;;;;12.00;99.90;;;;;;4952799;29;19922;-85
2022/04/25 16:31:50;;;;;;;;;;;11.80;99.90;;;;;;4946477;28;19922;-86
2022/04/25 16:34:38;;;;;;;;;;;11.40;99.90;;;;;;4953407;28;20360;-83
2022/04/25 16:37:28;;;;;;;;;;;10.80;99.90;;;;;;4964290;28;19930;-87
2022/04/25 16:40:16;;;;;;;;;;;10.20;99.90;;;;;;4956162;29;19945;-90
2022/04/25 16:43:03;;;;;;;;;;;9.50;99.90;;;;;;4959571;28;20375;-88
2022/04/25 16:45:55;;;;;;;;;;;9.30;99.90;;;;;;4953138;28;19933;-90
2022/04/25 16:48:45;;;;;;;;;;;9.10;99.90;;;;;;4966058;28;19928;-89
2022/04/25 16:51:32;;;;;;;;;;;9.10;99.90;;;;;;4958879;28;20041;-90
2022/04/25 16:54:21;;;;;;;;;;;9.10;99.90;;;;;;4950371;28;19930;-88
2022/04/25 16:57:09;;;;;;;;;;;9.20;99.90;;;;;;4954810;28;20241;-89
2022/04/25 16:59:57;;;;;;;;;;;9.30;99.90;;;;;;4961055;28;19977;-87
2022/04/25 17:02:45;;;;;;;;;;;9.60;99.90;;;;;;4963211;28;19937;-86
2022/04/25 17:05:33;;;;;;;;;;;9.70;99.90;;;;;;4958482;28;20311;-88
2022/04/25 17:08:24;;;;;;;;;;;9.80;99.90;;;;;;4980838;28;19922;-88
2022/04/25 17:11:12;;;;;;;;;;;9.80;99.90;;;;;;4962856;29;19929;-89
2022/04/25 17:14:00;;;;;;;;;;;9.70;99.90;;;;;;4964087;28;19930;-87
2022/04/25 17:16:47;;;;;;;;;;;9.60;99.90;;;;;;4967338;29;19981;-89
2022/04/25 17:19:35;;;;;;;;;;;9.50;99.90;;;;;;4974607;28;19926;-87
2022/04/25 17:22:25;;;;;;;;;;;9.30;99.90;;;;;;4983483;28;20005;-88
2022/04/25 17:25:12;;;;;;;;;;;9.20;99.90;;;;;;4962109;28;19971;-88
2022/04/25 17:28:02;;;;;;;;;;;9.00;99.90;;;;;;4973752;28;20021;-88
2022/04/25 17:30:50;;;;;;;;;;;9.00;99.90;;;;;;4954521;29;19958;-86
